Time;durP1;ratioP1;P1;durP2;ratioP2;P2;SDS_P1;SDS_P2;PMS_P1;PMS_P2;Temp;Humidity;BMP_temperature;BMP_pressure;BME280_temperature;BME280_humidity;BME280_pressure;Samples;Min_cycle;Max_cycle;Signal;HPM_P1;HPM_P2
2024/01/31 00:01:33;;;;;;;11.57;6.10;;;8.50;99.90;;;;;;4952465;28;20050;-64
2024/01/31 00:03:59;;;;;;;7.60;5.20;;;8.70;99.90;;;;;;4950042;28;20038;-64
2024/01/31 00:06:25;;;;;;;9.73;5.60;;;8.80;99.90;;;;;;4949556;28;20558;-64
2024/01/31 00:08:51;;;;;;;9.30;5.75;;;8.90;99.90;;;;;;4949877;28;20092;-64
2024/01/31 00:11:17;;;;;;;7.90;4.25;;;8.90;99.90;;;;;;4952511;28;20136;-64
2024/01/31 00:13:43;;;;;;;8.52;4.35;;;9.00;99.90;;;;;;4950461;28;20023;-64
2024/01/31 00:16:09;;;;;;;7.90;4.72;;;9.20;99.90;;;;;;4947633;28;20494;-64
2024/01/31 00:18:34;;;;;;;6.70;4.30;;;9.20;99.90;;;;;;4948357;28;20035;-64
2024/01/31 00:21:00;;;;;;;7.28;4.40;;;9.30;99.90;;;;;;4949754;28;20027;-64
2024/01/31 00:23:26;;;;;;;7.72;4.65;;;9.40;99.90;;;;;;4952015;28;20411;-64
2024/01/31 00:25:52;;;;;;;10.95;5.05;;;9.50;99.90;;;;;;4948342;28;20455;-64
2024/01/31 00:28:18;;;;;;;10.20;4.78;;;9.50;99.90;;;;;;4950505;28;20035;-64
2024/01/31 00:30:44;;;;;;;7.88;4.13;;;9.50;99.90;;;;;;4950524;28;20471;-64
2024/01/31 00:33:10;;;;;;;8.48;4.47;;;9.50;99.90;;;;;;4948119;28;20090;-64
2024/01/31 00:35:36;;;;;;;7.35;4.00;;;9.50;99.90;;;;;;4951004;28;20042;-64
2024/01/31 00:38:01;;;;;;;7.57;4.40;;;9.60;99.90;;;;;;4948791;28;20134;-64
2024/01/31 00:40:27;;;;;;;6.55;3.83;;;9.60;99.90;;;;;;4950666;28;20031;-64
2024/01/31 00:42:53;;;;;;;6.18;4.03;;;9.70;99.90;;;;;;4950869;28;20499;-64
2024/01/31 00:45:19;;;;;;;6.22;4.03;;;9.80;99.90;;;;;;4952581;28;20031;-64
2024/01/31 00:47:45;;;;;;;8.25;4.18;;;9.80;99.90;;;;;;4948683;28;20398;-64
2024/01/31 00:50:12;;;;;;;5.70;3.55;;;9.80;99.90;;;;;;4947220;28;20113;-64
2024/01/31 00:52:38;;;;;;;7.57;3.75;;;9.80;99.90;;;;;;4950791;28;20026;-67
2024/01/31 00:55:04;;;;;;;5.30;2.90;;;9.80;99.90;;;;;;4951375;28;20082;-64
2024/01/31 00:57:30;;;;;;;6.50;3.20;;;9.80;99.90;;;;;;4949455;28;20407;-64
2024/01/31 00:59:55;;;;;;;5.75;3.17;;;9.80;99.90;;;;;;4951334;28;20059;-64
2024/01/31 01:02:21;;;;;;;4.45;2.80;;;9.80;99.90;;;;;;4951956;28;20035;-64
2024/01/31 01:04:47;;;;;;;3.45;2.70;;;9.90;99.90;;;;;;4950373;28;20686;-64
2024/01/31 01:07:13;;;;;;;5.50;2.28;;;9.90;99.90;;;;;;4952677;28;20495;-64
2024/01/31 01:09:38;;;;;;;3.95;2.42;;;10.00;99.90;;;;;;4951373;28;20137;-68
2024/01/31 01:12:04;;;;;;;5.65;2.20;;;10.00;99.90;;;;;;4951465;28;20039;-67
2024/01/31 01:14:30;;;;;;;3.03;2.17;;;10.00;99.90;;;;;;4946225;28;20039;-68
2024/01/31 01:16:56;;;;;;;3.80;2.22;;;10.10;99.90;;;;;;4951845;28;20138;-68
2024/01/31 01:19:21;;;;;;;4.47;1.95;;;10.10;99.90;;;;;;4953579;28;20792;-67
2024/01/31 01:21:47;;;;;;;2.50;1.65;;;10.10;99.90;;;;;;4948532;28;20503;-68
2024/01/31 01:24:13;;;;;;;4.20;1.80;;;10.10;99.90;;;;;;4952125;28;20030;-67
2024/01/31 01:26:40;;;;;;;3.53;1.77;;;10.10;99.90;;;;;;4951610;28;20054;-68
2024/01/31 01:29:07;;;;;;;2.90;2.00;;;10.10;99.90;;;;;;4952899;28;20038;-68
2024/01/31 01:31:32;;;;;;;5.28;1.80;;;10.10;99.90;;;;;;4950564;28;20518;-64
2024/01/31 01:34:01;;;;;;;2.75;1.88;;;10.10;99.90;;;;;;4945577;28;20061;-64
2024/01/31 01:36:27;;;;;;;2.50;1.80;;;10.10;99.90;;;;;;4945692;28;20135;-64
2024/01/31 01:38:53;;;;;;;5.45;2.25;;;10.10;99.90;;;;;;4949506;28;20395;-64
2024/01/31 01:41:18;;;;;;;5.15;2.50;;;10.10;99.90;;;;;;4946216;28;20039;-64
2024/01/31 01:43:44;;;;;;;5.07;2.50;;;10.10;99.90;;;;;;4949303;28;20533;-64
2024/01/31 01:46:21;;;;;;;2.40;2.00;;;10.10;99.90;;;;;;4949526;28;20031;-64
2024/01/31 01:48:49;;;;;;;3.22;2.25;;;10.20;99.90;;;;;;4946802;28;20042;-64
2024/01/31 01:51:17;;;;;;;4.00;2.15;;;10.30;99.90;;;;;;4950595;28;21543;-64
2024/01/31 01:53:44;;;;;;;5.30;2.83;;;10.20;99.90;;;;;;4952138;28;20023;-64
2024/01/31 01:56:11;;;;;;;6.03;2.60;;;10.10;99.90;;;;;;4951779;28;20463;-64
2024/01/31 01:58:37;;;;;;;4.70;2.60;;;10.00;99.90;;;;;;4949514;28;20027;-64
2024/01/31 02:01:03;;;;;;;6.75;2.70;;;10.00;99.90;;;;;;4953640;28;20134;-64
2024/01/31 02:03:30;;;;;;;4.97;2.72;;;9.90;99.90;;;;;;4955189;28;20034;-64
2024/01/31 02:06:00;;;;;;;5.40;3.13;;;9.90;99.90;;;;;;4955893;28;20134;-64
2024/01/31 02:08:29;;;;;;;5.57;2.83;;;9.90;99.90;;;;;;4951596;28;20027;-64
2024/01/31 02:10:56;;;;;;;4.70;2.55;;;10.00;99.90;;;;;;4954984;28;20122;-64
2024/01/31 02:13:22;;;;;;;6.28;2.92;;;10.00;99.90;;;;;;4952512;28;20035;-64
2024/01/31 02:15:58;;;;;;;4.75;2.67;;;10.00;99.90;;;;;;4954393;28;20635;-64
2024/01/31 02:18:27;;;;;;;5.13;2.50;;;10.00;99.90;;;;;;4955248;28;20045;-64
2024/01/31 02:20:53;;;;;;;6.43;2.33;;;10.00;99.90;;;;;;4954133;28;20047;-64
2024/01/31 02:23:20;;;;;;;3.17;2.20;;;10.00;99.90;;;;;;4953297;28;20027;-64
2024/01/31 02:25:46;;;;;;;2.78;1.67;;;10.00;99.90;;;;;;4953878;28;20035;-64
2024/01/31 02:28:12;;;;;;;3.83;2.30;;;10.00;99.90;;;;;;4955117;28;20137;-64
2024/01/31 02:30:38;;;;;;;3.13;1.75;;;10.00;99.90;;;;;;4955253;28;20026;-64
2024/01/31 02:33:03;;;;;;;2.30;1.60;;;10.00;99.90;;;;;;4951981;28;20086;-64
2024/01/31 02:35:33;;;;;;;1.63;1.50;;;10.00;99.90;;;;;;4952995;28;20657;-64
2024/01/31 02:38:03;;;;;;;1.35;1.25;;;9.90;99.90;;;;;;4951853;28;20047;-64
2024/01/31 02:40:29;;;;;;;2.20;1.40;;;9.90;99.90;;;;;;4954806;28;20041;-68
2024/01/31 02:42:56;;;;;;;2.00;1.15;;;9.80;99.90;;;;;;4950670;28;20030;-68
2024/01/31 02:45:23;;;;;;;1.42;1.17;;;9.80;99.90;;;;;;4950013;28;20841;-68
2024/01/31 02:47:49;;;;;;;1.17;1.00;;;9.80;99.90;;;;;;4952180;28;20028;-68
2024/01/31 02:50:15;;;;;;;1.38;0.98;;;9.80;99.90;;;;;;4954576;28;20136;-68
2024/01/31 02:52:41;;;;;;;2.78;1.10;;;9.80;99.90;;;;;;4956159;28;20866;-68
2024/01/31 02:55:07;;;;;;;2.50;1.05;;;9.80;99.90;;;;;;4954963;28;20433;-68
2024/01/31 02:57:34;;;;;;;1.00;0.90;;;9.90;99.90;;;;;;4951752;28;20043;-68
2024/01/31 03:00:01;;;;;;;1.73;1.13;;;9.80;99.90;;;;;;4954230;28;20035;-64
2024/01/31 03:02:27;;;;;;;1.88;1.10;;;9.80;99.90;;;;;;4954205;28;20146;-64
2024/01/31 03:04:53;;;;;;;1.27;1.17;;;9.80;99.90;;;;;;4952837;28;20144;-64
2024/01/31 03:07:19;;;;;;;2.08;1.17;;;9.80;99.90;;;;;;4954008;28;20027;-64
2024/01/31 03:09:45;;;;;;;1.10;0.98;;;9.80;99.90;;;;;;4953361;28;20039;-64
2024/01/31 03:12:11;;;;;;;3.20;1.23;;;9.80;99.90;;;;;;4952602;28;20555;-64
2024/01/31 03:14:36;;;;;;;1.35;1.00;;;9.80;99.90;;;;;;4953757;28;20125;-64
2024/01/31 03:17:02;;;;;;;1.50;0.95;;;9.80;99.90;;;;;;4951612;28;20066;-64
2024/01/31 03:19:29;;;;;;;1.63;1.13;;;9.80;99.90;;;;;;4950629;28;20039;-64
2024/01/31 03:21:55;;;;;;;1.30;1.15;;;9.80;99.90;;;;;;4949761;28;20035;-64
2024/01/31 03:24:22;;;;;;;1.85;1.17;;;9.80;99.90;;;;;;4954013;28;20076;-64
2024/01/31 03:26:48;;;;;;;1.42;0.90;;;9.80;99.90;;;;;;4952224;28;20059;-64
2024/01/31 03:29:13;;;;;;;1.60;0.80;;;9.80;99.90;;;;;;4951897;28;20031;-64
2024/01/31 03:31:39;;;;;;;1.52;0.77;;;9.70;99.90;;;;;;4954499;28;20495;-64
2024/01/31 03:34:05;;;;;;;0.93;0.50;;;9.60;99.90;;;;;;4951433;28;20031;-64
2024/01/31 03:36:33;;;;;;;2.35;0.57;;;9.40;99.90;;;;;;4952829;28;20042;-64
2024/01/31 03:38:59;;;;;;;0.75;0.60;;;9.40;99.90;;;;;;4949901;28;20083;-64
2024/01/31 03:41:26;;;;;;;1.02;0.40;;;9.40;99.90;;;;;;4950472;28;20062;-64
2024/01/31 03:43:52;;;;;;;0.55;0.50;;;9.30;99.90;;;;;;4952165;28;21100;-67
2024/01/31 03:46:18;;;;;;;0.30;0.30;;;9.30;99.90;;;;;;4954408;28;20023;-67
2024/01/31 03:48:44;;;;;;;0.40;0.40;;;9.30;99.90;;;;;;4952158;28;20031;-64
2024/01/31 03:51:20;;;;;;;0.60;0.47;;;9.30;99.90;;;;;;4952304;28;20050;-64
2024/01/31 03:53:47;;;;;;;0.25;0.20;;;9.40;99.90;;;;;;4949823;28;20046;-67
2024/01/31 03:56:13;;;;;;;0.30;0.30;;;9.40;99.90;;;;;;4950220;28;20038;-64
2024/01/31 03:58:40;;;;;;;0.65;0.50;;;9.40;99.90;;;;;;4953399;28;20030;-64
2024/01/31 04:01:07;;;;;;;0.20;0.20;;;9.30;99.90;;;;;;4953266;28;20045;-64
2024/01/31 04:03:32;;;;;;;0.28;0.20;;;9.40;99.90;;;;;;4950374;28;20035;-64
2024/01/31 04:05:58;;;;;;;0.93;0.22;;;9.40;99.90;;;;;;4950553;28;20453;-64
2024/01/31 04:08:24;;;;;;;0.10;0.10;;;9.30;99.90;;;;;;4950631;28;20027;-64
2024/01/31 04:10:52;;;;;;;0.15;0.15;;;9.30;99.90;;;;;;4950753;28;20055;-64
2024/01/31 04:13:21;;;;;;;0.60;0.13;;;9.20;99.90;;;;;;4952551;28;20154;-64
2024/01/31 04:15:47;;;;;;;1.15;0.30;;;9.20;99.90;;;;;;4951797;28;20046;-64
2024/01/31 04:18:13;;;;;;;0.22;0.20;;;9.20;99.90;;;;;;4948744;28;20030;-64
2024/01/31 04:20:39;;;;;;;0.13;0.10;;;9.20;99.90;;;;;;4950112;28;20039;-64
2024/01/31 04:23:05;;;;;;;0.40;0.10;;;9.20;99.90;;;;;;4950495;28;20035;-64
2024/01/31 04:25:31;;;;;;;0.38;0.10;;;9.20;99.90;;;;;;4951262;28;20029;-64
2024/01/31 04:27:57;;;;;;;0.10;0.10;;;9.10;99.90;;;;;;4950237;28;20027;-64
2024/01/31 04:30:23;;;;;;;0.25;0.20;;;9.10;99.90;;;;;;4948740;28;20034;-64
2024/01/31 04:32:49;;;;;;;0.15;0.15;;;9.20;99.90;;;;;;4952580;28;20553;-64
2024/01/31 04:35:15;;;;;;;1.33;0.45;;;9.10;99.90;;;;;;4946715;28;20039;-64
2024/01/31 04:37:40;;;;;;;1.45;0.30;;;9.10;99.90;;;;;;4950738;28;20046;-64
2024/01/31 04:40:07;;;;;;;1.60;0.30;;;9.00;99.90;;;;;;4949931;28;20151;-64
2024/01/31 04:42:33;;;;;;;2.35;0.20;;;9.00;99.90;;;;;;4951828;28;20305;-64
2024/01/31 04:44:59;;;;;;;1.08;0.17;;;9.00;99.90;;;;;;4952306;28;20035;-64
2024/01/31 04:47:25;;;;;;;0.32;0.32;;;8.90;99.90;;;;;;4952475;28;20093;-64
2024/01/31 04:49:56;;;;;;;1.55;0.30;;;8.90;99.90;;;;;;4951893;28;20034;-64
2024/01/31 04:52:22;;;;;;;0.22;0.22;;;8.90;99.90;;;;;;4949631;28;20105;-67
2024/01/31 04:54:50;;;;;;;0.20;0.20;;;9.00;99.90;;;;;;4951924;28;20122;-68
2024/01/31 04:57:16;;;;;;;0.22;0.13;;;9.00;99.90;;;;;;4949294;28;20028;-64
2024/01/31 04:59:42;;;;;;;0.70;0.20;;;8.90;99.90;;;;;;4951620;28;20121;-64
2024/01/31 05:02:08;;;;;;;1.35;0.50;;;8.90;99.90;;;;;;4949182;28;20038;-64
2024/01/31 05:04:39;;;;;;;0.55;0.30;;;8.80;99.90;;;;;;4949433;28;20024;-64
2024/01/31 05:07:05;;;;;;;0.65;0.20;;;8.80;99.90;;;;;;4950640;28;20036;-64
2024/01/31 05:09:32;;;;;;;0.10;0.10;;;8.80;99.90;;;;;;4951437;28;20090;-67
2024/01/31 05:11:57;;;;;;;2.17;0.20;;;8.70;99.90;;;;;;4945385;28;20023;-67
2024/01/31 05:14:23;;;;;;;0.05;0.05;;;8.70;99.90;;;;;;4949983;28;20116;-67
2024/01/31 05:16:49;;;;;;;0.10;0.10;;;8.50;99.90;;;;;;4951724;28;20059;-67
2024/01/31 05:19:15;;;;;;;1.40;0.15;;;8.30;99.90;;;;;;4951911;28;20635;-67
2024/01/31 05:21:48;;;;;;;0.10;0.03;;;8.20;99.90;;;;;;4950180;28;20038;-67
2024/01/31 05:24:15;;;;;;;2.55;0.13;;;8.10;99.90;;;;;;4952504;28;20069;-67
2024/01/31 05:26:45;;;;;;;0.70;0.10;;;8.10;99.90;;;;;;4950741;28;20039;-64
2024/01/31 05:29:11;;;;;;;0.25;0.10;;;8.00;99.90;;;;;;4949939;28;20038;-64
2024/01/31 05:31:37;;;;;;;0.45;0.10;;;8.00;99.90;;;;;;4951808;28;20036;-64
2024/01/31 05:34:02;;;;;;;0.55;0.03;;;7.90;99.90;;;;;;4950438;28;20255;-64
2024/01/31 05:36:28;;;;;;;0.10;0.08;;;7.80;99.90;;;;;;4948700;28;20041;-64
2024/01/31 05:38:54;;;;;;;0.65;0.10;;;7.80;99.90;;;;;;4952892;28;20041;-64
2024/01/31 05:41:20;;;;;;;0.80;0.00;;;7.70;99.90;;;;;;4953088;28;20130;-67
2024/01/31 05:43:47;;;;;;;0.20;0.10;;;7.70;99.90;;;;;;4955919;28;20073;-67
2024/01/31 05:46:17;;;;;;;0.90;0.13;;;7.60;99.90;;;;;;4954897;28;20038;-67
2024/01/31 05:48:43;;;;;;;0.70;0.10;;;7.60;99.90;;;;;;4952019;28;20089;-63
2024/01/31 05:51:09;;;;;;;1.52;0.20;;;7.60;99.90;;;;;;4955513;28;20518;-64
2024/01/31 05:53:36;;;;;;;0.28;0.20;;;7.70;99.90;;;;;;4954594;28;20030;-64
2024/01/31 05:56:02;;;;;;;0.10;0.10;;;7.80;99.90;;;;;;4955773;28;20043;-63
2024/01/31 05:58:29;;;;;;;0.25;0.10;;;7.90;99.90;;;;;;4953178;28;20031;-64
2024/01/31 06:00:54;;;;;;;1.30;0.30;;;7.90;99.90;;;;;;4953123;28;20039;-64
2024/01/31 06:03:22;;;;;;;0.10;0.10;;;8.00;99.90;;;;;;4955296;28;20041;-64
2024/01/31 06:05:48;;;;;;;0.03;0.03;;;8.10;99.90;;;;;;4955240;28;20031;-64
2024/01/31 06:08:15;;;;;;;0.80;0.10;;;8.10;99.90;;;;;;4953896;28;20413;-67
2024/01/31 06:10:41;;;;;;;0.20;0.10;;;8.10;99.90;;;;;;4953153;28;20033;-67
2024/01/31 06:13:07;;;;;;;0.88;0.17;;;8.20;99.90;;;;;;4953228;28;20435;-68
2024/01/31 06:15:33;;;;;;;0.10;0.10;;;8.20;99.90;;;;;;4955050;28;20041;-67
2024/01/31 06:17:58;;;;;;;1.13;0.15;;;8.20;99.90;;;;;;4954749;28;20046;-64
2024/01/31 06:20:24;;;;;;;0.85;0.10;;;8.20;99.90;;;;;;4954395;28;20034;-64
2024/01/31 06:22:50;;;;;;;0.90;0.28;;;8.20;99.90;;;;;;4952597;28;20031;-64
2024/01/31 06:25:16;;;;;;;0.98;0.43;;;8.20;99.90;;;;;;4953582;28;20047;-64
2024/01/31 06:27:42;;;;;;;0.15;0.05;;;8.10;99.90;;;;;;4950982;28;20808;-64
2024/01/31 06:30:08;;;;;;;0.30;0.20;;;8.10;99.90;;;;;;4953500;28;20036;-68
2024/01/31 06:32:37;;;;;;;0.55;0.40;;;8.00;99.90;;;;;;4952457;28;20039;-67
2024/01/31 06:35:03;;;;;;;1.58;0.20;;;7.90;99.90;;;;;;4953669;28;20553;-64
2024/01/31 06:37:29;;;;;;;0.30;0.30;;;7.90;99.90;;;;;;4953174;28;20110;-64
2024/01/31 06:39:55;;;;;;;1.67;0.50;;;7.90;99.90;;;;;;4955803;28;20466;-64
2024/01/31 06:42:21;;;;;;;0.40;0.40;;;7.90;99.90;;;;;;4953106;28;20034;-64
2024/01/31 06:44:47;;;;;;;0.52;0.32;;;7.90;99.90;;;;;;4950838;28;20028;-63
2024/01/31 06:47:13;;;;;;;1.45;0.70;;;8.00;99.90;;;;;;4949644;28;20588;-64
2024/01/31 06:49:38;;;;;;;1.38;0.70;;;8.00;99.90;;;;;;4954445;28;20034;-64
2024/01/31 06:52:10;;;;;;;2.90;1.10;;;8.00;99.90;;;;;;4954468;28;20079;-63
2024/01/31 06:54:36;;;;;;;2.35;1.17;;;8.10;99.90;;;;;;4953708;28;20039;-63
2024/01/31 06:57:02;;;;;;;1.27;0.70;;;8.10;99.90;;;;;;4950361;28;20106;-63
2024/01/31 06:59:27;;;;;;;3.90;1.00;;;8.20;99.90;;;;;;4951719;28;20487;-63
2024/01/31 07:01:53;;;;;;;1.00;0.70;;;8.20;99.90;;;;;;4954273;28;20515;-64
2024/01/31 07:04:20;;;;;;;0.38;0.38;;;8.10;99.90;;;;;;4951980;28;20468;-64
2024/01/31 07:06:45;;;;;;;0.45;0.30;;;8.10;99.90;;;;;;4930430;28;20033;-63
2024/01/31 07:09:11;;;;;;;0.68;0.30;;;8.10;99.90;;;;;;4953798;28;20039;-63
2024/01/31 07:11:37;;;;;;;1.00;0.57;;;8.10;99.90;;;;;;4951840;28;20051;-64
2024/01/31 07:14:03;;;;;;;0.63;0.30;;;8.10;99.90;;;;;;4952914;28;20416;-62
2024/01/31 07:16:28;;;;;;;0.75;0.32;;;8.10;99.90;;;;;;4954177;28;20580;-63
2024/01/31 07:18:55;;;;;;;0.75;0.30;;;8.20;99.90;;;;;;4951304;28;20078;-65
2024/01/31 07:21:25;;;;;;;0.40;0.20;;;8.10;99.90;;;;;;4941783;28;20555;-65
2024/01/31 07:23:52;;;;;;;1.55;0.40;;;8.20;99.90;;;;;;4964858;28;20447;-65
2024/01/31 07:26:26;;;;;;;0.60;0.43;;;8.20;99.90;;;;;;4965036;28;20139;-65
2024/01/31 07:28:52;;;;;;;0.63;0.43;;;8.20;99.90;;;;;;4963072;28;20086;-66
2024/01/31 07:31:18;;;;;;;0.50;0.50;;;8.20;99.90;;;;;;4960244;28;20062;-65
2024/01/31 07:33:44;;;;;;;1.40;0.30;;;8.30;99.90;;;;;;4964209;28;20030;-65
2024/01/31 07:36:10;;;;;;;0.45;0.22;;;8.30;99.90;;;;;;4960605;28;20039;-65
2024/01/31 07:38:36;;;;;;;1.05;0.20;;;8.30;99.90;;;;;;4960999;28;20120;-65
2024/01/31 07:41:02;;;;;;;0.28;0.28;;;8.30;99.90;;;;;;4961133;28;20157;-65
2024/01/31 07:43:28;;;;;;;1.13;0.38;;;8.30;99.90;;;;;;4958538;28;20027;-65
2024/01/31 07:45:53;;;;;;;0.45;0.20;;;8.30;99.90;;;;;;4960870;28;20122;-65
2024/01/31 07:48:19;;;;;;;2.97;1.25;;;8.30;99.90;;;;;;4959662;28;20118;-65
2024/01/31 07:50:45;;;;;;;3.53;0.75;;;8.30;99.90;;;;;;4961167;28;20050;-65
2024/01/31 07:53:11;;;;;;;1.08;0.80;;;8.30;99.90;;;;;;4962422;28;20738;-65
2024/01/31 07:55:37;;;;;;;0.50;0.50;;;8.40;99.90;;;;;;4961393;28;20114;-70
2024/01/31 07:58:03;;;;;;;0.65;0.50;;;8.30;99.90;;;;;;4961263;28;20182;-70
2024/01/31 08:00:29;;;;;;;0.38;0.38;;;8.40;99.90;;;;;;4961877;28;20094;-64
2024/01/31 08:02:55;;;;;;;0.57;0.40;;;8.40;99.90;;;;;;4961265;28;20035;-65
2024/01/31 08:05:21;;;;;;;3.30;2.35;;;8.40;99.90;;;;;;4960859;28;20045;-64
2024/01/31 08:07:47;;;;;;;2.30;1.30;;;8.40;99.90;;;;;;4961679;28;20023;-65
2024/01/31 08:10:13;;;;;;;0.68;0.40;;;8.40;99.90;;;;;;4962063;28;20999;-65
2024/01/31 08:12:42;;;;;;;2.00;0.65;;;8.40;99.90;;;;;;4960649;28;20026;-64
2024/01/31 08:15:08;;;;;;;1.75;1.58;;;8.40;99.90;;;;;;4958764;28;20590;-65
2024/01/31 08:17:34;;;;;;;6.55;2.70;;;8.40;99.90;;;;;;4960524;28;20138;-64
2024/01/31 08:20:00;;;;;;;9.80;4.15;;;8.40;99.90;;;;;;4958890;28;20030;-64
2024/01/31 08:22:26;;;;;;;2.28;1.42;;;8.40;99.90;;;;;;4958907;28;20497;-65
2024/01/31 08:24:52;;;;;;;2.58;1.17;;;8.40;99.90;;;;;;4961828;28;20035;-65
2024/01/31 08:27:18;;;;;;;1.52;0.65;;;8.40;99.90;;;;;;4957098;28;20200;-65
2024/01/31 08:29:44;;;;;;;0.47;0.28;;;8.40;99.90;;;;;;4960859;28;20741;-65
2024/01/31 08:32:10;;;;;;;0.82;0.45;;;8.50;99.90;;;;;;4960038;28;20037;-65
2024/01/31 08:34:36;;;;;;;2.63;1.17;;;8.50;99.90;;;;;;4960464;28;20031;-66
2024/01/31 08:37:02;;;;;;;1.25;0.50;;;8.50;99.90;;;;;;4963197;28;20045;-66
2024/01/31 08:39:31;;;;;;;3.55;0.80;;;8.50;99.90;;;;;;4957738;28;20835;-62
2024/01/31 08:41:57;;;;;;;1.92;0.38;;;8.50;99.90;;;;;;4960065;28;20031;-63
2024/01/31 08:44:23;;;;;;;2.72;0.60;;;8.50;99.90;;;;;;4958997;28;20043;-62
2024/01/31 08:46:49;;;;;;;7.47;4.05;;;8.40;99.90;;;;;;4960110;28;20043;-69
2024/01/31 08:49:15;;;;;;;1.20;0.88;;;8.40;99.90;;;;;;4960653;28;20142;-61
2024/01/31 08:51:41;;;;;;;9.85;3.95;;;8.40;99.90;;;;;;4961447;28;20019;-63
2024/01/31 08:54:06;;;;;;;6.97;3.55;;;8.30;99.90;;;;;;4959600;28;20026;-63
2024/01/31 08:56:33;;;;;;;4.65;3.00;;;8.30;99.90;;;;;;4960981;28;20035;-63
2024/01/31 08:58:59;;;;;;;3.75;1.50;;;8.30;99.90;;;;;;4958238;28;20097;-63
2024/01/31 09:01:25;;;;;;;5.88;2.55;;;8.20;99.90;;;;;;4960972;28;20038;-63
2024/01/31 09:03:51;;;;;;;5.00;2.00;;;8.20;99.90;;;;;;4959527;28;20027;-63
2024/01/31 09:06:17;;;;;;;2.40;1.15;;;8.20;99.90;;;;;;4960075;28;20134;-63
2024/01/31 09:08:43;;;;;;;3.33;1.67;;;8.20;99.90;;;;;;4959790;28;20038;-63
2024/01/31 09:11:09;;;;;;;4.60;2.50;;;8.20;99.90;;;;;;4960230;28;20033;-67
2024/01/31 09:13:35;;;;;;;1.55;1.27;;;8.20;99.90;;;;;;4968272;28;20459;-68
2024/01/31 09:16:01;;;;;;;2.10;1.20;;;8.20;99.90;;;;;;4979057;28;20038;-68
2024/01/31 09:18:28;;;;;;;0.55;0.50;;;8.10;99.90;;;;;;4979204;28;20045;-68
2024/01/31 09:20:54;;;;;;;1.60;0.60;;;8.10;99.90;;;;;;4980023;28;20112;-67
2024/01/31 09:23:20;;;;;;;1.58;1.00;;;8.10;99.90;;;;;;4977800;28;20030;-67
2024/01/31 09:25:47;;;;;;;3.90;1.70;;;8.10;99.90;;;;;;4978257;28;20039;-69
2024/01/31 09:28:12;;;;;;;7.75;4.07;;;8.10;99.90;;;;;;4977650;28;20044;-68
2024/01/31 09:30:38;;;;;;;7.38;4.78;;;8.00;99.90;;;;;;4981291;28;20043;-67
2024/01/31 09:33:04;;;;;;;10.75;4.32;;;7.90;99.90;;;;;;4978796;28;20038;-67
2024/01/31 09:35:31;;;;;;;1.92;0.90;;;7.90;99.90;;;;;;4977057;28;20034;-67
2024/01/31 09:37:56;;;;;;;8.70;4.15;;;7.80;99.90;;;;;;4979155;28;20026;-66
2024/01/31 09:40:23;;;;;;;6.15;2.80;;;7.90;99.90;;;;;;4979837;28;20498;-66
2024/01/31 09:42:51;;;;;;;4.82;1.33;;;8.00;99.90;;;;;;4977998;28;20038;-66
2024/01/31 09:45:18;;;;;;;6.15;2.05;;;8.00;99.90;;;;;;4981187;28;20118;-66
2024/01/31 09:47:46;;;;;;;2.22;1.40;;;8.10;99.90;;;;;;4979444;28;20113;-66
2024/01/31 09:50:12;;;;;;;2.08;0.90;;;8.10;99.90;;;;;;4979884;28;20022;-67
2024/01/31 09:52:40;;;;;;;4.85;2.22;;;8.20;99.90;;;;;;4980284;28;20044;-67
2024/01/31 09:55:09;;;;;;;1.73;1.20;;;8.20;99.90;;;;;;4979221;28;20081;-67
2024/01/31 09:57:36;;;;;;;3.47;1.60;;;8.20;99.90;;;;;;4979006;28;20492;-66
2024/01/31 10:00:05;;;;;;;1.75;0.80;;;8.20;99.90;;;;;;4977071;28;20494;-67
2024/01/31 10:02:40;;;;;;;;;;;8.20;99.90;;;;;;4979669;28;20034;-67
2024/01/31 10:05:06;;;;;;;1.90;0.30;;;8.20;99.90;;;;;;4979373;28;19918;-67
2024/01/31 10:07:32;;;;;;;1.65;0.57;;;8.10;99.90;;;;;;4981510;28;20033;-67
2024/01/31 10:10:00;;;;;;;3.35;0.50;;;8.10;99.90;;;;;;4980905;28;20078;-66
2024/01/31 10:12:26;;;;;;;0.90;0.50;;;8.10;99.90;;;;;;4977502;28;20695;-68
2024/01/31 10:14:52;;;;;;;1.40;0.50;;;8.20;99.90;;;;;;4978071;28;20035;-67
2024/01/31 10:17:22;;;;;;;1.17;0.80;;;8.10;99.90;;;;;;4969608;28;20069;-63
2024/01/31 10:19:49;;;;;;;1.08;0.57;;;8.20;99.90;;;;;;4980300;28;20085;-63
2024/01/31 10:22:18;;;;;;;4.38;0.63;;;8.20;99.90;;;;;;4981104;28;20085;-67
2024/01/31 10:24:50;;;;;;;2.00;0.60;;;8.20;99.90;;;;;;4981789;28;20038;-68
2024/01/31 10:27:22;;;;;;;3.28;0.75;;;8.20;99.90;;;;;;4984154;28;20034;-68
2024/01/31 10:29:48;;;;;;;7.15;2.53;;;8.30;99.90;;;;;;4984607;28;20105;-67
2024/01/31 10:32:20;;;;;;;3.53;1.10;;;8.30;99.90;;;;;;4984070;28;20030;-67
2024/01/31 10:34:47;;;;;;;4.97;2.08;;;8.40;99.90;;;;;;4982082;28;20044;-68
2024/01/31 10:37:14;;;;;;;5.45;1.48;;;8.40;99.90;;;;;;4981563;28;20501;-68
2024/01/31 10:39:40;;;;;;;4.15;0.70;;;8.60;99.90;;;;;;4982056;28;20040;-68
2024/01/31 10:42:06;;;;;;;1.95;1.02;;;8.60;99.90;;;;;;4981354;28;20054;-68
2024/01/31 10:44:37;;;;;;;3.88;0.60;;;8.70;99.90;;;;;;4981942;28;20041;-68
2024/01/31 10:47:04;;;;;;;4.68;1.45;;;8.80;99.90;;;;;;4981287;28;20034;-68
2024/01/31 10:49:30;;;;;;;1.88;1.00;;;8.80;99.90;;;;;;4979949;28;20113;-68
2024/01/31 10:51:58;;;;;;;8.35;0.90;;;8.80;99.90;;;;;;4983049;28;20579;-68
2024/01/31 10:54:31;;;;;;;5.57;0.98;;;8.90;99.90;;;;;;4982529;28;20169;-67
2024/01/31 10:56:58;;;;;;;6.55;3.13;;;8.90;99.90;;;;;;4980266;28;20073;-67
2024/01/31 10:59:24;;;;;;;11.50;4.88;;;9.00;99.90;;;;;;4982801;28;20038;-68
2024/01/31 11:01:55;;;;;;;1.88;0.70;;;9.00;99.90;;;;;;4979884;28;20033;-68
2024/01/31 11:04:21;;;;;;;4.70;1.73;;;8.90;99.90;;;;;;4980932;28;20335;-68
2024/01/31 11:06:51;;;;;;;3.03;0.82;;;8.80;99.40;;;;;;4981067;28;20034;-67
2024/01/31 11:09:22;;;;;;;5.30;1.17;;;8.80;99.90;;;;;;4979631;28;20070;-68
2024/01/31 11:12:04;;;;;;;5.30;0.90;;;8.90;99.90;;;;;;4963503;28;20030;-63
2024/01/31 11:14:31;;;;;;;5.00;1.30;;;9.00;99.50;;;;;;4983265;28;20026;-63
2024/01/31 11:17:07;;;;;;;3.08;0.80;;;9.10;98.30;;;;;;4980835;28;20491;-63
2024/01/31 11:19:37;;;;;;;5.90;0.90;;;9.30;98.20;;;;;;4982818;28;20084;-63
2024/01/31 11:22:04;;;;;;;4.22;0.80;;;9.60;97.30;;;;;;4983252;28;20045;-63
2024/01/31 11:24:29;;;;;;;1.98;0.52;;;9.70;97.00;;;;;;4984423;28;20054;-64
2024/01/31 11:26:55;;;;;;;3.80;1.10;;;9.60;95.70;;;;;;4981377;28;20117;-63
2024/01/31 11:29:22;;;;;;;4.63;1.40;;;9.40;96.50;;;;;;4981971;28;20041;-64
2024/01/31 11:31:48;;;;;;;5.28;3.20;;;9.40;96.50;;;;;;4979652;28;20030;-63
2024/01/31 11:34:14;;;;;;;7.07;2.33;;;9.20;96.80;;;;;;4968948;28;20402;-63
2024/01/31 11:36:40;;;;;;;6.85;1.88;;;9.20;96.90;;;;;;4972952;28;20034;-63
2024/01/31 11:39:07;;;;;;;6.95;1.38;;;9.30;97.00;;;;;;4973026;28;20057;-63
2024/01/31 11:41:33;;;;;;;5.53;2.33;;;9.40;96.80;;;;;;4974656;28;20046;-63
2024/01/31 11:43:59;;;;;;;7.75;2.33;;;9.40;97.20;;;;;;4974036;28;20030;-63
2024/01/31 11:46:25;;;;;;;3.78;0.50;;;9.50;96.60;;;;;;4950081;28;20052;-64
2024/01/31 11:48:54;;;;;;;3.05;1.20;;;9.50;95.90;;;;;;4966934;28;20054;-63
2024/01/31 11:51:19;;;;;;;3.03;0.90;;;9.40;96.10;;;;;;4978637;28;20035;-64
2024/01/31 11:53:45;;;;;;;1.20;0.57;;;9.20;96.00;;;;;;4981546;28;20509;-64
2024/01/31 11:56:12;;;;;;;1.50;0.50;;;9.20;96.30;;;;;;4980923;28;20031;-63
2024/01/31 11:58:38;;;;;;;2.97;1.45;;;9.30;96.60;;;;;;4978988;28;20030;-67
2024/01/31 12:01:04;;;;;;;2.25;0.80;;;9.30;96.40;;;;;;4981222;28;20052;-68
2024/01/31 12:03:30;;;;;;;1.33;1.23;;;9.40;96.40;;;;;;4982048;28;20500;-67
2024/01/31 12:05:59;;;;;;;7.38;1.58;;;9.40;96.30;;;;;;4981729;28;20034;-67
2024/01/31 12:08:27;;;;;;;3.83;1.00;;;9.50;95.20;;;;;;4971357;28;20046;-68
2024/01/31 12:10:56;;;;;;;1.55;0.80;;;9.50;95.30;;;;;;4978938;28;20056;-68
2024/01/31 12:13:22;;;;;;;3.25;0.68;;;9.50;95.50;;;;;;4981783;28;20030;-68
2024/01/31 12:15:48;;;;;;;3.58;1.80;;;9.40;94.70;;;;;;4980624;28;20121;-68
2024/01/31 12:18:15;;;;;;;4.75;1.17;;;9.20;95.70;;;;;;4979718;28;20048;-68
2024/01/31 12:20:41;;;;;;;2.92;1.20;;;9.20;96.00;;;;;;4984274;28;20041;-68
2024/01/31 12:23:07;;;;;;;1.92;0.90;;;9.20;96.10;;;;;;4980608;28;20058;-68
2024/01/31 12:25:33;;;;;;;1.77;0.68;;;9.10;96.50;;;;;;4980883;28;20138;-65
2024/01/31 12:28:00;;;;;;;3.67;0.98;;;8.80;97.80;;;;;;4980668;28;20030;-64
2024/01/31 12:30:26;;;;;;;4.68;1.33;;;8.70;98.20;;;;;;4980990;28;20547;-63
2024/01/31 12:32:52;;;;;;;3.25;0.60;;;8.50;99.20;;;;;;4979912;28;20041;-64
2024/01/31 12:35:18;;;;;;;0.90;0.47;;;8.10;99.90;;;;;;4981896;28;20047;-63
2024/01/31 12:37:45;;;;;;;4.57;0.60;;;7.70;99.90;;;;;;4982088;28;20105;-64
2024/01/31 12:40:11;;;;;;;2.63;0.60;;;7.70;99.90;;;;;;4978480;28;20528;-64
2024/01/31 12:42:37;;;;;;;3.45;0.65;;;7.70;99.90;;;;;;4980994;28;20029;-65
2024/01/31 12:45:04;;;;;;;0.90;0.60;;;7.70;99.90;;;;;;4980865;28;20038;-64
2024/01/31 12:47:30;;;;;;;3.40;1.38;;;7.60;99.90;;;;;;4979184;28;20037;-64
2024/01/31 12:49:56;;;;;;;3.30;0.70;;;7.50;99.90;;;;;;4981145;28;20034;-62
2024/01/31 12:52:24;;;;;;;2.80;0.75;;;7.60;99.90;;;;;;4979897;28;20054;-65